createdAt,value
2022-12-08T00:00:00.098Z,6.45
2022-12-08T00:05:21.021Z,7.55
2022-12-08T00:10:47.964Z,8.20
2022-12-08T00:15:45.246Z,6.67
2022-12-08T00:20:58.001Z,6.60
2022-12-08T00:26:05.088Z,6.32
2022-12-08T00:31:09.393Z,6.53
2022-12-08T00:36:14.224Z,6.57
2022-12-08T00:41:40.582Z,6.77
2022-12-08T00:46:42.877Z,7.37
2022-12-08T00:51:45.076Z,6.75
2022-12-08T00:56:47.577Z,6.25
2022-12-08T01:01:49.674Z,6.25
2022-12-08T01:06:51.873Z,7.00
2022-12-08T01:11:53.942Z,6.60
2022-12-08T01:16:56.131Z,6.87
2022-12-08T01:21:58.223Z,6.60
2022-12-08T01:27:00.283Z,6.10
2022-12-08T01:32:02.797Z,7.87
2022-12-08T01:37:04.998Z,6.18
2022-12-08T01:42:21.926Z,5.93
2022-12-08T01:47:29.597Z,6.70
2022-12-08T01:52:48.487Z,6.43
2022-12-08T01:58:13.404Z,5.70
2022-12-08T02:03:31.525Z,5.77
2022-12-08T02:08:35.874Z,6.40
2022-12-08T02:13:38.730Z,5.87
2022-12-08T02:24:42.408Z,5.60
2022-12-08T02:30:08.692Z,4.63
2022-12-08T02:35:23.896Z,4.90
2022-12-08T02:40:34.473Z,5.17
2022-12-08T02:45:44.130Z,5.00
2022-12-08T02:50:46.275Z,5.97
2022-12-08T02:56:04.102Z,5.10
2022-12-08T03:01:25.787Z,5.07
2022-12-08T03:06:31.260Z,4.87
2022-12-08T03:11:46.467Z,3.95
2022-12-08T03:16:52.617Z,4.40
2022-12-08T03:22:06.996Z,4.55
2022-12-08T03:27:13.491Z,3.60
2022-12-08T03:32:34.600Z,4.07
2022-12-08T03:37:37.953Z,4.05
2022-12-08T03:42:40.061Z,4.97
2022-12-08T03:47:42.050Z,4.20
2022-12-08T03:52:44.139Z,4.25
2022-12-08T03:57:46.134Z,4.30
2022-12-08T04:02:48.191Z,4.50
2022-12-08T04:07:50.727Z,4.72
2022-12-08T04:12:53.106Z,4.68
2022-12-08T04:17:55.228Z,4.80
2022-12-08T04:22:57.248Z,4.20
2022-12-08T04:27:59.418Z,5.37
2022-12-08T04:33:01.885Z,4.50
2022-12-08T04:38:04.442Z,4.05
2022-12-08T04:43:06.906Z,4.97
2022-12-08T04:48:09.865Z,4.15
2022-12-08T04:53:13.395Z,4.50
2022-12-08T04:58:17.834Z,3.80
2022-12-08T05:03:25.257Z,4.40
2022-12-08T05:08:30.657Z,3.87
2022-12-08T05:18:36.072Z,4.27
2022-12-08T05:23:38.288Z,4.43
2022-12-08T05:28:42.365Z,4.37
2022-12-08T05:33:46.087Z,3.83
2022-12-08T05:38:48.928Z,4.50
2022-12-08T05:43:53.657Z,4.93
2022-12-08T05:48:55.785Z,4.33
2022-12-08T05:53:59.731Z,4.07
2022-12-08T05:59:01.909Z,4.87
2022-12-08T06:04:05.068Z,4.65
2022-12-08T06:09:07.269Z,4.67
2022-12-08T06:14:13.032Z,4.65
2022-12-08T06:19:15.830Z,5.00
2022-12-08T06:24:18.249Z,4.97
2022-12-08T06:29:20.818Z,4.97
2022-12-08T06:34:23.272Z,5.35
2022-12-08T06:39:25.356Z,4.85
2022-12-08T06:44:27.412Z,5.07
2022-12-08T06:49:29.457Z,5.35
2022-12-08T06:54:31.576Z,4.97
2022-12-08T06:59:33.712Z,5.25
2022-12-08T07:04:35.771Z,5.43
2022-12-08T07:09:37.972Z,5.32
2022-12-08T07:14:40.117Z,5.65
2022-12-08T07:19:42.174Z,6.30
2022-12-08T07:24:44.264Z,6.50
2022-12-08T07:29:46.297Z,5.68
2022-12-08T07:34:48.397Z,6.68
2022-12-08T07:39:50.462Z,5.50
2022-12-08T07:44:52.607Z,4.93
2022-12-08T07:49:55.124Z,5.07
2022-12-08T07:59:59.138Z,6.07
2022-12-08T08:05:01.365Z,5.87
2022-12-08T08:10:04.440Z,5.90
2022-12-08T08:15:08.447Z,6.60
2022-12-08T08:20:11.348Z,6.15
2022-12-08T08:25:14.954Z,6.83
2022-12-08T08:30:20.762Z,6.40
2022-12-08T08:35:23.366Z,7.80
2022-12-08T08:40:25.479Z,8.32
2022-12-08T08:45:28.073Z,6.28
2022-12-08T08:55:40.156Z,6.45
2022-12-08T09:05:45.063Z,7.47
2022-12-08T09:15:49.385Z,8.35
2022-12-08T09:20:51.700Z,7.55
2022-12-08T09:25:53.765Z,8.27
2022-12-08T09:30:56.023Z,7.65
2022-12-08T09:36:03.444Z,8.23
2022-12-08T09:41:19.804Z,9.85
2022-12-08T09:46:22.255Z,9.65
2022-12-08T09:51:26.727Z,9.73
2022-12-08T09:56:33.718Z,10.15
2022-12-08T10:01:41.403Z,9.75
2022-12-08T10:07:17.918Z,9.20
2022-12-08T10:12:34.108Z,10.10
2022-12-08T10:17:44.503Z,8.77
2022-12-08T10:22:50.567Z,9.10
2022-12-08T10:27:54.740Z,8.37
2022-12-08T10:32:57.002Z,9.20
2022-12-08T10:38:02.332Z,9.02
2022-12-08T10:43:06.869Z,8.67
2022-12-08T10:48:19.021Z,7.33
2022-12-08T10:53:33.651Z,7.10
2022-12-08T10:58:36.190Z,6.50
2022-12-08T11:03:57.217Z,6.55
2022-12-08T11:09:22.513Z,6.80
2022-12-08T11:14:44.052Z,8.20
2022-12-08T11:20:18.404Z,6.80
2022-12-08T11:25:27.545Z,7.43
2022-12-08T11:30:36.105Z,7.55
2022-12-08T11:35:42.610Z,6.35
2022-12-08T11:40:45.230Z,6.95
2022-12-08T11:51:13.392Z,5.40
2022-12-08T11:56:26.349Z,6.85
2022-12-08T12:01:28.572Z,6.20
2022-12-08T12:07:05.507Z,6.45
2022-12-08T12:12:22.627Z,6.80
2022-12-08T12:18:05.384Z,6.70
2022-12-08T12:23:22.637Z,5.65
2022-12-08T12:28:28.202Z,6.60
2022-12-08T12:33:31.592Z,6.20
2022-12-08T12:38:59.159Z,7.93
2022-12-08T12:44:13.197Z,6.95
2022-12-08T12:49:40.245Z,6.10
2022-12-08T12:54:43.447Z,5.20
2022-12-08T12:59:55.188Z,5.60
2022-12-08T13:04:59.867Z,4.80
2022-12-08T13:10:11.335Z,5.20
2022-12-08T13:15:20.111Z,4.50
2022-12-08T13:20:24.894Z,6.00
2022-12-08T13:25:45.233Z,5.90
2022-12-08T13:30:51.355Z,6.20
2022-12-08T13:36:25.788Z,6.15
2022-12-08T13:41:47.924Z,6.65
2022-12-08T13:47:24.600Z,6.55
2022-12-08T13:57:42.755Z,6.55
2022-12-08T14:07:55.466Z,6.30
2022-12-08T14:13:05.154Z,6.40
2022-12-08T14:18:24.549Z,7.40
2022-12-08T14:23:26.697Z,5.85
2022-12-08T14:28:28.783Z,5.43
2022-12-08T14:33:31.516Z,6.47
2022-12-08T14:43:36.206Z,9.83
2022-12-08T14:53:46.232Z,6.63
2022-12-08T14:58:51.315Z,7.50
2022-12-08T15:03:55.488Z,8.55
2022-12-08T15:08:59.549Z,10.07
2022-12-08T15:14:02.703Z,9.25
2022-12-08T15:19:31.134Z,12.80
2022-12-08T15:24:35.547Z,7.15
2022-12-08T15:29:37.594Z,8.35
2022-12-08T15:34:39.804Z,8.07
2022-12-08T15:39:41.936Z,8.00
2022-12-08T15:44:44.417Z,7.03
2022-12-08T15:49:49.610Z,7.95
2022-12-08T15:54:51.764Z,8.00
2022-12-08T15:59:53.896Z,8.02
2022-12-08T16:10:24.030Z,8.05
2022-12-08T16:26:35.532Z,7.40
2022-12-08T16:31:37.056Z,7.70
2022-12-08T16:36:39.231Z,21.27
2022-12-08T16:42:00.551Z,10.20
2022-12-08T16:47:09.097Z,7.75
2022-12-08T16:52:11.305Z,9.05
2022-12-08T16:57:13.397Z,8.25
2022-12-08T17:02:16.617Z,9.05
2022-12-08T17:07:18.943Z,8.20
2022-12-08T17:12:21.086Z,11.57
2022-12-08T17:17:23.150Z,10.43
2022-12-08T17:22:25.408Z,9.88
2022-12-08T17:27:27.941Z,11.95
2022-12-08T17:37:32.206Z,11.45
2022-12-08T17:42:34.319Z,10.55
2022-12-08T17:47:37.083Z,10.02
2022-12-08T17:52:39.232Z,11.00
2022-12-08T17:57:41.382Z,14.25
2022-12-08T18:02:44.512Z,16.00
2022-12-08T18:07:46.992Z,13.82
2022-12-08T18:12:49.083Z,11.93
2022-12-08T18:17:51.752Z,11.98
2022-12-08T18:22:53.909Z,9.85
2022-12-08T18:27:55.949Z,10.05
2022-12-08T18:32:58.012Z,10.02
2022-12-08T18:38:00.123Z,10.43
2022-12-08T18:43:02.140Z,9.45
2022-12-08T18:48:04.778Z,14.60
2022-12-08T18:58:10.798Z,9.75
2022-12-08T19:03:13.004Z,8.85
2022-12-08T19:08:15.245Z,10.15
2022-12-08T19:13:17.323Z,8.57
2022-12-08T19:18:19.531Z,12.18
2022-12-08T19:23:21.589Z,12.27
2022-12-08T19:28:24.020Z,11.32
2022-12-08T19:33:26.058Z,10.45
2022-12-08T19:38:28.121Z,10.55
2022-12-08T19:43:48.651Z,8.95
2022-12-08T19:48:50.743Z,8.93
2022-12-08T19:53:52.822Z,11.90
2022-12-08T19:58:54.935Z,12.37
2022-12-08T20:03:57.049Z,10.00
2022-12-08T20:09:00.351Z,11.80
2022-12-08T20:14:02.447Z,12.60
2022-12-08T20:19:04.609Z,14.52
2022-12-08T20:24:07.106Z,15.80
2022-12-08T20:34:15.726Z,11.67
2022-12-08T20:39:18.727Z,14.00
2022-12-08T20:44:20.950Z,14.10
2022-12-08T20:49:23.167Z,14.45
2022-12-08T20:54:25.202Z,14.57
2022-12-08T20:59:27.780Z,14.80
2022-12-08T21:09:32.148Z,11.73
2022-12-08T21:14:34.333Z,15.10
2022-12-08T21:19:36.623Z,17.33
2022-12-08T21:24:38.721Z,11.50
2022-12-08T21:29:40.824Z,11.73
2022-12-08T21:34:44.025Z,11.15
2022-12-08T21:39:46.293Z,12.43
2022-12-08T21:44:48.580Z,11.40
2022-12-08T21:49:50.665Z,11.32
2022-12-08T21:54:53.093Z,12.40
2022-12-08T21:59:55.895Z,11.35
2022-12-08T22:04:58.350Z,11.77
2022-12-08T22:15:07.625Z,9.40
2022-12-08T22:20:15.097Z,10.03
2022-12-08T22:25:17.348Z,9.77
2022-12-08T22:30:19.459Z,9.25
2022-12-08T22:35:21.913Z,7.75
2022-12-08T22:40:24.165Z,9.55
2022-12-08T22:45:26.377Z,11.25
2022-12-08T22:50:28.826Z,10.10
2022-12-08T22:55:31.353Z,9.43
2022-12-08T23:05:38.097Z,10.75
2022-12-08T23:10:40.993Z,9.47
2022-12-08T23:15:43.534Z,11.30
2022-12-08T23:25:48.447Z,9.73
2022-12-08T23:30:50.673Z,8.57
2022-12-08T23:41:04.374Z,10.60
2022-12-08T23:46:06.634Z,10.80
2022-12-08T23:51:09.251Z,10.95
